createdAt,value
2023-05-25T00:01:01.159Z,6.52
2023-05-25T00:03:36.301Z,6.50
2023-05-25T00:06:08.221Z,6.45
2023-05-25T00:08:40.402Z,6.42
2023-05-25T00:11:11.709Z,6.39
2023-05-25T00:13:43.068Z,6.37
2023-05-25T00:16:14.203Z,6.34
2023-05-25T00:18:45.616Z,6.32
2023-05-25T00:21:17.046Z,6.29
2023-05-25T00:23:48.535Z,6.25
2023-05-25T00:26:19.780Z,6.21
2023-05-25T00:28:51.590Z,6.17
2023-05-25T00:31:22.906Z,6.15
2023-05-25T00:33:54.109Z,6.14
2023-05-25T00:36:25.400Z,6.11
2023-05-25T00:38:56.493Z,6.09
2023-05-25T00:41:28.985Z,6.07
2023-05-25T00:44:00.225Z,6.05
2023-05-25T00:46:34.458Z,6.02
2023-05-25T00:49:06.169Z,5.99
2023-05-25T00:51:37.612Z,5.97
2023-05-25T00:54:09.259Z,5.95
2023-05-25T00:56:41.753Z,5.92
2023-05-25T00:59:18.300Z,5.86
2023-05-25T01:01:53.953Z,5.84
2023-05-25T01:04:28.484Z,5.80
2023-05-25T01:06:59.833Z,5.77
2023-05-25T01:09:34.587Z,5.75
2023-05-25T01:12:07.382Z,5.73
2023-05-25T01:14:39.551Z,5.72
2023-05-25T01:17:11.552Z,5.70
2023-05-25T01:19:51.926Z,5.68
2023-05-25T01:22:38.310Z,5.64
2023-05-25T01:25:14.843Z,5.62
2023-05-25T01:27:49.963Z,5.59
2023-05-25T01:30:23.976Z,5.58
2023-05-25T01:32:56.559Z,5.57
2023-05-25T01:35:28.727Z,5.57
2023-05-25T01:38:01.358Z,5.55
2023-05-25T01:40:32.422Z,5.53
2023-05-25T01:43:03.862Z,5.50
2023-05-25T01:45:35.580Z,5.47
2023-05-25T01:48:13.145Z,5.45
2023-05-25T01:51:08.659Z,5.39
2023-05-25T01:53:45.127Z,5.34
2023-05-25T01:56:17.305Z,5.32
2023-05-25T01:58:51.444Z,5.32
2023-05-25T02:01:23.948Z,5.33
2023-05-25T02:03:56.173Z,5.32
2023-05-25T02:06:27.596Z,5.30
2023-05-25T02:08:57.230Z,5.27
2023-05-25T02:11:28.565Z,5.22
2023-05-25T02:13:59.666Z,5.17
2023-05-25T02:16:31.353Z,5.12
2023-05-25T02:19:02.989Z,5.07
2023-05-25T02:21:36.467Z,5.02
2023-05-25T02:24:09.579Z,4.98
2023-05-25T02:26:40.891Z,4.98
2023-05-25T02:29:12.380Z,4.98
2023-05-25T02:31:43.570Z,4.97
2023-05-25T02:34:15.632Z,4.96
2023-05-25T02:36:46.744Z,4.94
2023-05-25T02:39:17.826Z,4.91
2023-05-25T02:41:48.703Z,4.88
2023-05-25T02:44:19.905Z,4.85
2023-05-25T02:46:51.198Z,4.82
2023-05-25T02:49:22.485Z,4.81
2023-05-25T02:51:53.518Z,4.80
2023-05-25T02:54:24.621Z,4.79
2023-05-25T02:56:55.684Z,4.79
2023-05-25T02:59:26.829Z,4.79
2023-05-25T03:01:58.231Z,4.80
2023-05-25T03:04:31.279Z,4.79
2023-05-25T03:07:02.347Z,4.79
2023-05-25T03:09:34.059Z,4.77
2023-05-25T03:12:05.513Z,4.75
2023-05-25T03:14:36.736Z,4.71
2023-05-25T03:17:08.229Z,4.66
2023-05-25T03:19:39.519Z,4.64
2023-05-25T03:22:11.054Z,4.62
2023-05-25T03:24:42.116Z,4.63
2023-05-25T03:27:13.127Z,4.63
2023-05-25T03:29:42.561Z,4.64
2023-05-25T03:32:13.595Z,4.65
2023-05-25T03:34:45.346Z,4.66
2023-05-25T03:37:16.702Z,4.69
2023-05-25T03:39:47.717Z,4.73
2023-05-25T03:42:18.947Z,4.79
2023-05-25T03:44:49.951Z,4.84
2023-05-25T03:47:21.223Z,4.87
2023-05-25T03:49:52.342Z,4.90
2023-05-25T03:52:23.311Z,4.96
2023-05-25T03:54:54.318Z,5.01
2023-05-25T03:57:25.464Z,5.06
2023-05-25T03:59:56.394Z,5.09
2023-05-25T04:02:27.999Z,5.12
2023-05-25T04:05:00.017Z,5.15
2023-05-25T04:07:31.386Z,5.21
2023-05-25T04:10:02.405Z,5.33
2023-05-25T04:12:33.461Z,5.50
2023-05-25T04:15:05.643Z,5.73
2023-05-25T04:17:39.248Z,5.96
2023-05-25T04:20:12.892Z,6.20
2023-05-25T04:22:45.013Z,6.40
2023-05-25T04:25:17.146Z,6.66
2023-05-25T04:27:49.003Z,6.94
2023-05-25T04:30:20.282Z,7.25
2023-05-25T04:32:51.686Z,7.57
2023-05-25T04:35:23.542Z,7.92
2023-05-25T04:37:54.597Z,8.26
2023-05-25T04:40:25.763Z,8.58
2023-05-25T04:42:57.115Z,8.93
2023-05-25T04:45:29.395Z,9.26
2023-05-25T04:48:01.815Z,9.58
2023-05-25T04:50:33.211Z,9.85
2023-05-25T04:53:04.524Z,10.12
2023-05-25T04:55:35.916Z,10.47
2023-05-25T04:58:07.721Z,10.79
2023-05-25T05:00:40.317Z,11.05
2023-05-25T05:03:11.850Z,11.32
2023-05-25T05:05:44.596Z,11.55
2023-05-25T05:08:15.977Z,11.77
2023-05-25T05:10:47.116Z,11.99
2023-05-25T05:13:18.283Z,12.24
2023-05-25T05:15:49.301Z,12.55
2023-05-25T05:18:20.445Z,12.85
2023-05-25T05:20:51.826Z,13.13
2023-05-25T05:23:22.958Z,13.17
2023-05-25T05:25:53.884Z,12.97
2023-05-25T05:28:27.445Z,12.78
2023-05-25T05:30:58.933Z,12.46
2023-05-25T05:33:30.493Z,12.15
2023-05-25T05:36:02.918Z,11.82
2023-05-25T05:38:33.785Z,11.57
2023-05-25T05:41:08.119Z,11.40
2023-05-25T05:43:39.846Z,11.31
2023-05-25T05:46:12.084Z,11.26
2023-05-25T05:48:43.224Z,11.24
2023-05-25T05:51:14.544Z,11.24
2023-05-25T05:53:45.617Z,11.26
2023-05-25T05:56:21.853Z,11.31
2023-05-25T05:58:54.200Z,11.34
2023-05-25T06:01:25.736Z,11.35
2023-05-25T06:03:56.720Z,11.37
2023-05-25T06:06:28.763Z,11.42
2023-05-25T06:09:01.032Z,11.50
2023-05-25T06:11:32.430Z,11.57
2023-05-25T06:14:03.586Z,11.65
2023-05-25T06:16:35.248Z,11.73
2023-05-25T06:19:06.846Z,11.82
2023-05-25T06:21:38.684Z,11.90
2023-05-25T06:24:10.833Z,11.98
2023-05-25T06:26:42.057Z,12.07
2023-05-25T06:29:15.435Z,12.18
2023-05-25T06:31:47.793Z,12.29
2023-05-25T06:34:19.066Z,12.39
2023-05-25T06:36:50.133Z,12.51
2023-05-25T06:39:21.426Z,12.63
2023-05-25T06:41:52.352Z,12.75
2023-05-25T06:44:23.417Z,12.87
2023-05-25T06:46:54.540Z,12.96
2023-05-25T06:49:25.778Z,12.99
2023-05-25T06:51:57.194Z,13.04
2023-05-25T06:54:28.296Z,13.11
2023-05-25T06:56:59.641Z,13.18
2023-05-25T06:59:31.262Z,13.27
2023-05-25T07:02:02.398Z,13.35
2023-05-25T07:04:34.781Z,13.42
2023-05-25T07:07:06.344Z,13.48
2023-05-25T07:09:37.483Z,13.54
2023-05-25T07:12:11.120Z,13.57
2023-05-25T07:14:42.534Z,13.63
2023-05-25T07:17:13.495Z,13.70
2023-05-25T07:19:44.654Z,13.76
2023-05-25T07:22:17.095Z,13.83
2023-05-25T07:24:48.566Z,13.90
2023-05-25T07:27:19.984Z,13.97
2023-05-25T07:29:51.218Z,13.99
2023-05-25T07:32:22.766Z,13.98
2023-05-25T07:34:54.060Z,13.99
2023-05-25T07:37:25.286Z,14.02
2023-05-25T07:39:56.637Z,14.04
2023-05-25T07:42:33.922Z,14.08
2023-05-25T07:45:05.699Z,14.16
2023-05-25T07:47:37.058Z,14.24
2023-05-25T07:50:09.525Z,14.33
2023-05-25T07:52:40.794Z,14.35
2023-05-25T07:55:13.001Z,14.39
2023-05-25T07:57:44.166Z,14.41
2023-05-25T08:00:16.668Z,14.45
2023-05-25T08:02:48.056Z,14.49
2023-05-25T08:05:19.585Z,14.52
2023-05-25T08:07:50.696Z,14.56
2023-05-25T08:10:21.914Z,14.62
2023-05-25T08:12:53.622Z,14.66
2023-05-25T08:15:25.347Z,14.73
2023-05-25T08:17:56.940Z,14.78
2023-05-25T08:20:28.344Z,14.85
2023-05-25T08:22:59.675Z,14.89
2023-05-25T08:25:30.820Z,14.94
2023-05-25T08:28:01.864Z,15.01
2023-05-25T08:30:33.908Z,15.06
2023-05-25T08:33:05.405Z,15.14
2023-05-25T08:35:39.360Z,15.18
2023-05-25T08:38:10.618Z,15.21
2023-05-25T08:40:44.828Z,15.27
2023-05-25T08:43:15.879Z,15.36
2023-05-25T08:45:47.622Z,15.44
2023-05-25T08:48:39.406Z,15.54
2023-05-25T08:51:14.618Z,15.62
2023-05-25T08:53:46.633Z,15.67
2023-05-25T08:56:21.647Z,15.67
2023-05-25T08:59:06.343Z,15.68
2023-05-25T09:01:45.364Z,15.73
2023-05-25T09:04:19.731Z,15.79
2023-05-25T09:07:05.809Z,15.80
2023-05-25T09:09:41.242Z,15.82
2023-05-25T09:12:13.617Z,15.82
2023-05-25T09:14:48.063Z,15.87
2023-05-25T09:17:21.253Z,15.93
2023-05-25T09:19:52.335Z,15.95
2023-05-25T09:22:23.354Z,15.97
2023-05-25T09:24:55.129Z,16.00
2023-05-25T09:27:27.142Z,16.02
2023-05-25T09:30:01.270Z,16.05
2023-05-25T09:32:33.742Z,16.14
2023-05-25T09:35:12.806Z,16.24
2023-05-25T09:37:45.386Z,16.34
2023-05-25T09:40:17.620Z,16.39
2023-05-25T09:42:48.876Z,16.42
2023-05-25T09:45:20.252Z,16.45
2023-05-25T09:47:55.315Z,16.47
2023-05-25T09:50:28.153Z,16.54
2023-05-25T09:53:02.318Z,16.61
2023-05-25T09:55:48.122Z,16.68
2023-05-25T09:58:26.075Z,16.73
2023-05-25T10:00:58.412Z,16.78
2023-05-25T10:03:29.658Z,16.84
2023-05-25T10:06:02.209Z,16.91
2023-05-25T10:08:34.400Z,16.98
2023-05-25T10:11:06.625Z,17.03
2023-05-25T10:13:38.689Z,17.07
2023-05-25T10:16:13.357Z,17.09
2023-05-25T10:18:48.775Z,17.14
2023-05-25T10:21:21.731Z,17.22
2023-05-25T10:23:57.110Z,17.29
2023-05-25T10:26:33.610Z,17.32
2023-05-25T10:29:05.947Z,17.35
2023-05-25T10:31:39.354Z,17.39
2023-05-25T10:34:11.407Z,17.45
2023-05-25T10:36:43.470Z,17.49
2023-05-25T10:39:15.218Z,17.50
2023-05-25T10:41:47.891Z,17.52
2023-05-25T10:44:19.889Z,17.52
2023-05-25T10:46:52.049Z,17.55
2023-05-25T10:49:34.579Z,17.61
2023-05-25T10:52:06.296Z,17.67
2023-05-25T10:54:39.688Z,17.74
2023-05-25T10:57:18.767Z,17.82
2023-05-25T10:59:55.666Z,17.88
2023-05-25T11:02:28.534Z,17.98
2023-05-25T11:05:32.493Z,18.05
2023-05-25T11:08:06.402Z,18.11
2023-05-25T11:10:59.843Z,18.18
2023-05-25T11:13:40.914Z,18.27
2023-05-25T11:16:21.409Z,18.36
2023-05-25T11:18:58.472Z,18.47
2023-05-25T11:21:46.016Z,18.59
2023-05-25T11:24:21.503Z,18.73
2023-05-25T11:27:02.712Z,18.79
2023-05-25T11:29:37.386Z,18.88
2023-05-25T11:32:13.253Z,19.00
2023-05-25T11:34:46.821Z,19.10
2023-05-25T11:37:21.383Z,19.17
2023-05-25T11:39:53.506Z,19.23
2023-05-25T11:42:25.713Z,19.31
2023-05-25T11:44:57.332Z,19.36
2023-05-25T11:47:31.160Z,19.38
2023-05-25T11:50:04.173Z,19.44
2023-05-25T11:52:35.516Z,19.45
2023-05-25T11:55:14.585Z,19.46
2023-05-25T11:57:46.163Z,19.43
2023-05-25T12:00:28.572Z,19.45
2023-05-25T12:02:59.749Z,19.53
2023-05-25T12:05:40.093Z,19.63
2023-05-25T12:08:12.094Z,19.73
2023-05-25T12:10:53.433Z,19.83
2023-05-25T12:13:25.043Z,19.95
2023-05-25T12:16:00.438Z,20.10
2023-05-25T12:18:32.613Z,20.25
2023-05-25T12:21:08.220Z,20.37
2023-05-25T12:23:39.780Z,20.48
2023-05-25T12:26:14.337Z,20.58
2023-05-25T12:29:00.730Z,20.68
2023-05-25T12:31:34.126Z,20.76
2023-05-25T12:34:12.983Z,20.87
2023-05-25T12:36:50.068Z,20.97
2023-05-25T12:39:39.548Z,20.99
2023-05-25T12:42:16.329Z,21.02
2023-05-25T12:44:48.042Z,21.06
2023-05-25T12:47:21.376Z,21.16
2023-05-25T12:49:53.950Z,21.21
2023-05-25T12:52:38.894Z,21.28
2023-05-25T12:55:28.090Z,21.39
2023-05-25T12:58:02.251Z,21.44
2023-05-25T13:00:36.449Z,21.50
2023-05-25T13:03:08.551Z,21.61
2023-05-25T13:05:40.394Z,21.73
2023-05-25T13:08:11.439Z,21.83
2023-05-25T13:10:42.906Z,21.94
2023-05-25T13:13:14.038Z,22.07
2023-05-25T13:15:45.079Z,22.11
2023-05-25T13:18:16.200Z,22.04
2023-05-25T13:20:51.768Z,21.89
2023-05-25T13:23:24.587Z,21.74
2023-05-25T13:25:55.952Z,21.64
2023-05-25T13:28:27.007Z,21.59
2023-05-25T13:30:58.268Z,21.64
2023-05-25T13:33:29.508Z,21.78
2023-05-25T13:36:08.377Z,21.89
2023-05-25T13:38:40.339Z,21.93
2023-05-25T13:41:11.440Z,21.98
2023-05-25T13:43:42.510Z,22.09
2023-05-25T13:46:25.724Z,22.20
2023-05-25T13:49:04.439Z,22.26
2023-05-25T13:51:38.316Z,22.29
2023-05-25T13:54:09.293Z,22.27
2023-05-25T13:56:42.569Z,22.24
2023-05-25T13:59:13.716Z,22.20
2023-05-25T14:01:44.947Z,22.11
2023-05-25T14:04:17.290Z,22.01
2023-05-25T14:06:50.241Z,21.93
2023-05-25T14:09:21.623Z,21.87
2023-05-25T14:11:53.773Z,21.80
2023-05-25T14:14:31.987Z,21.79
2023-05-25T14:17:03.762Z,21.80
2023-05-25T14:19:35.329Z,21.84
2023-05-25T14:24:40.816Z,22.00
2023-05-25T14:27:11.955Z,22.17
2023-05-25T14:29:43.246Z,22.51
2023-05-25T14:32:14.579Z,22.84
2023-05-25T14:34:46.074Z,23.14
2023-05-25T14:37:17.118Z,23.49
2023-05-25T14:39:47.975Z,23.86
2023-05-25T14:42:19.173Z,24.13
2023-05-25T14:44:50.419Z,24.25
2023-05-25T14:47:21.816Z,24.23
2023-05-25T14:49:53.788Z,24.05
2023-05-25T14:52:24.886Z,23.77
2023-05-25T14:54:56.255Z,23.50
2023-05-25T14:57:27.558Z,23.36
2023-05-25T14:59:58.703Z,23.22
2023-05-25T15:02:30.069Z,23.04
2023-05-25T15:05:01.264Z,22.80
2023-05-25T15:07:32.441Z,22.58
2023-05-25T15:10:03.661Z,22.39
2023-05-25T15:12:34.770Z,22.54
2023-05-25T15:15:06.388Z,22.85
2023-05-25T15:17:37.410Z,22.98
2023-05-25T15:20:09.815Z,23.29
2023-05-25T15:22:40.959Z,23.74
2023-05-25T15:25:18.901Z,24.18
2023-05-25T15:27:52.712Z,24.49
2023-05-25T15:30:25.877Z,24.69
2023-05-25T15:32:56.850Z,24.84
2023-05-25T15:35:31.322Z,24.99
2023-05-25T15:38:02.501Z,25.24
2023-05-25T15:40:33.718Z,25.45
2023-05-25T15:43:04.777Z,25.50
2023-05-25T15:45:36.009Z,25.55
2023-05-25T15:48:10.151Z,25.62
2023-05-25T15:50:41.500Z,25.64
2023-05-25T15:53:13.205Z,25.59
2023-05-25T15:55:44.658Z,25.62
2023-05-25T15:58:17.861Z,25.77
2023-05-25T16:00:49.229Z,25.94
2023-05-25T16:03:20.460Z,26.13
2023-05-25T16:05:51.684Z,26.14
2023-05-25T16:08:23.114Z,26.13
2023-05-25T16:10:54.406Z,26.07
2023-05-25T16:13:25.824Z,26.23
2023-05-25T16:15:57.063Z,26.33
2023-05-25T16:18:28.317Z,26.44
2023-05-25T16:20:59.378Z,26.59
2023-05-25T16:23:30.649Z,26.73
2023-05-25T16:26:01.835Z,26.90
2023-05-25T16:28:32.967Z,26.96
2023-05-25T16:31:05.219Z,26.95
2023-05-25T16:33:36.457Z,27.03
2023-05-25T16:36:08.533Z,27.25
2023-05-25T16:38:39.545Z,27.47
2023-05-25T16:41:10.954Z,27.60
2023-05-25T16:43:42.261Z,27.56
2023-05-25T16:46:14.528Z,27.27
2023-05-25T16:48:45.604Z,27.00
2023-05-25T16:51:17.745Z,26.79
2023-05-25T16:53:49.097Z,26.63
2023-05-25T16:56:21.541Z,26.30
2023-05-25T16:58:52.856Z,26.03
2023-05-25T17:01:24.160Z,25.85
2023-05-25T17:03:55.973Z,25.78
2023-05-25T17:06:27.117Z,25.71
2023-05-25T17:08:58.531Z,25.72
2023-05-25T17:11:29.781Z,25.73
2023-05-25T17:14:00.966Z,25.65
2023-05-25T17:16:36.004Z,25.53
2023-05-25T17:19:07.340Z,25.47
2023-05-25T17:21:38.525Z,25.32
2023-05-25T17:24:10.383Z,25.03
2023-05-25T17:26:42.093Z,24.95
2023-05-25T17:29:13.385Z,25.07
2023-05-25T17:31:46.305Z,25.10
2023-05-25T17:34:19.622Z,25.00
2023-05-25T17:36:52.283Z,24.85
2023-05-25T17:39:24.044Z,24.66
2023-05-25T17:41:55.999Z,24.50
2023-05-25T17:44:27.420Z,24.39
2023-05-25T17:46:58.451Z,24.40
2023-05-25T17:49:29.802Z,24.17
2023-05-25T17:52:00.744Z,23.94
2023-05-25T17:54:31.971Z,23.76
2023-05-25T17:57:03.710Z,23.59
2023-05-25T17:59:34.970Z,23.32
2023-05-25T18:02:06.817Z,23.07
2023-05-25T18:04:38.268Z,22.93
2023-05-25T18:07:09.697Z,22.77
2023-05-25T18:09:41.246Z,22.63
2023-05-25T18:12:13.679Z,22.50
2023-05-25T18:14:45.121Z,22.28
2023-05-25T18:17:16.452Z,21.94
2023-05-25T18:19:47.673Z,21.60
2023-05-25T18:22:19.054Z,21.34
2023-05-25T18:24:50.663Z,21.00
2023-05-25T18:27:22.850Z,20.69
2023-05-25T18:29:54.210Z,20.46
2023-05-25T18:32:25.592Z,20.20
2023-05-25T18:34:57.271Z,19.93
2023-05-25T18:37:29.452Z,19.59
2023-05-25T18:40:01.115Z,19.35
2023-05-25T18:42:34.951Z,19.13
2023-05-25T18:45:07.676Z,18.88
2023-05-25T18:47:39.141Z,18.62
2023-05-25T18:50:12.380Z,18.37
2023-05-25T18:52:43.471Z,18.14
2023-05-25T18:55:14.760Z,17.96
2023-05-25T18:57:45.856Z,17.80
2023-05-25T19:00:18.319Z,17.66
2023-05-25T19:02:50.122Z,17.54
2023-05-25T19:05:22.636Z,17.40
2023-05-25T19:07:59.608Z,17.30
2023-05-25T19:10:31.399Z,17.18
2023-05-25T19:13:03.062Z,17.03
2023-05-25T19:15:34.154Z,16.88
2023-05-25T19:18:05.854Z,16.78
2023-05-25T19:20:37.702Z,16.65
2023-05-25T19:23:09.032Z,16.49
2023-05-25T19:25:40.709Z,16.30
2023-05-25T19:28:13.010Z,16.13
2023-05-25T19:30:44.928Z,15.96
2023-05-25T19:33:16.045Z,15.84
2023-05-25T19:35:47.566Z,15.72
2023-05-25T19:38:19.843Z,15.61
2023-05-25T19:40:51.532Z,15.49
2023-05-25T19:43:22.714Z,15.42
2023-05-25T19:45:53.696Z,15.35
2023-05-25T19:48:27.266Z,15.30
2023-05-25T19:50:59.249Z,15.20
2023-05-25T19:53:31.620Z,15.11
2023-05-25T19:56:03.394Z,14.99
2023-05-25T19:58:34.996Z,14.88
2023-05-25T20:01:06.542Z,14.78
2023-05-25T20:03:38.027Z,14.69
2023-05-25T20:06:09.526Z,14.61
2023-05-25T20:08:40.966Z,14.50
2023-05-25T20:11:12.319Z,14.41
2023-05-25T20:13:43.556Z,14.34
2023-05-25T20:16:14.730Z,14.24
2023-05-25T20:18:46.078Z,14.16
2023-05-25T20:21:19.653Z,14.08
2023-05-25T20:23:52.038Z,14.01
2023-05-25T20:26:23.591Z,13.94
2023-05-25T20:28:55.075Z,13.86
2023-05-25T20:31:26.774Z,13.78
2023-05-25T20:33:58.074Z,13.69
2023-05-25T20:36:29.231Z,13.62
2023-05-25T20:39:00.515Z,13.54
2023-05-25T20:41:32.098Z,13.48
2023-05-25T20:44:06.609Z,13.38
2023-05-25T20:46:38.434Z,13.32
2023-05-25T20:49:09.645Z,13.28
2023-05-25T20:51:41.950Z,13.26
2023-05-25T20:54:13.200Z,13.24
2023-05-25T20:56:44.452Z,13.20
2023-05-25T20:59:16.599Z,13.18
2023-05-25T21:01:47.835Z,13.15
2023-05-25T21:04:19.352Z,13.15
2023-05-25T21:06:50.685Z,13.16
2023-05-25T21:09:22.405Z,13.16
2023-05-25T21:11:53.677Z,13.17
2023-05-25T21:14:24.712Z,13.16
2023-05-25T21:16:55.994Z,13.17
2023-05-25T21:19:27.465Z,13.19
2023-05-25T21:21:58.462Z,13.22
2023-05-25T21:24:29.548Z,13.24
2023-05-25T21:27:01.559Z,13.27
2023-05-25T21:29:32.770Z,13.28
2023-05-25T21:32:03.764Z,13.31
2023-05-25T21:34:34.767Z,13.31
2023-05-25T21:37:06.018Z,13.31
2023-05-25T21:39:37.210Z,13.32
2023-05-25T21:42:08.777Z,13.30
2023-05-25T21:44:39.874Z,13.24
2023-05-25T21:47:11.099Z,13.12
2023-05-25T21:49:42.190Z,13.04
2023-05-25T21:52:13.286Z,13.00
2023-05-25T21:54:44.322Z,12.97
2023-05-25T21:57:15.384Z,12.94
2023-05-25T21:59:46.547Z,12.92
2023-05-25T22:02:17.775Z,12.90
2023-05-25T22:04:49.089Z,12.88
2023-05-25T22:07:20.066Z,12.85
2023-05-25T22:09:51.178Z,12.82
2023-05-25T22:12:22.558Z,12.78
2023-05-25T22:14:53.716Z,12.73
2023-05-25T22:17:24.697Z,12.69
2023-05-25T22:20:07.398Z,12.63
2023-05-25T22:22:37.977Z,12.56
2023-05-25T22:25:09.957Z,12.48
2023-05-25T22:27:41.129Z,12.43
2023-05-25T22:30:13.860Z,12.37
2023-05-25T22:32:45.011Z,12.32
2023-05-25T22:35:16.130Z,12.27
2023-05-25T22:37:47.552Z,12.21
2023-05-25T22:40:18.902Z,12.16
2023-05-25T22:42:50.528Z,12.11
2023-05-25T22:45:22.222Z,12.06
2023-05-25T22:47:53.273Z,12.02
2023-05-25T22:50:24.346Z,12.00
2023-05-25T22:52:55.322Z,11.98
2023-05-25T22:55:26.459Z,11.98
2023-05-25T22:57:57.500Z,11.95
2023-05-25T23:00:29.217Z,11.92
2023-05-25T23:03:03.205Z,11.87
2023-05-25T23:05:35.453Z,11.82
2023-05-25T23:08:06.501Z,11.79
2023-05-25T23:10:37.483Z,11.78
2023-05-25T23:13:08.552Z,11.76
2023-05-25T23:15:40.155Z,11.75
2023-05-25T23:18:11.358Z,11.73
2023-05-25T23:20:42.968Z,11.73
2023-05-25T23:23:14.247Z,11.71
2023-05-25T23:25:46.108Z,11.71
2023-05-25T23:28:17.276Z,11.71
2023-05-25T23:30:48.369Z,11.70
2023-05-25T23:33:19.604Z,11.68
2023-05-25T23:35:50.986Z,11.65
2023-05-25T23:38:22.333Z,11.65
2023-05-25T23:40:53.464Z,11.62
2023-05-25T23:43:24.454Z,11.60
2023-05-25T23:45:56.078Z,11.57
2023-05-25T23:48:27.105Z,11.54
2023-05-25T23:50:58.251Z,11.48
2023-05-25T23:53:29.260Z,11.40
2023-05-25T23:56:00.682Z,11.35
2023-05-25T23:58:32.369Z,11.32
